createdAt,value
2022-08-05T00:02:07.200Z,7.20
2022-08-05T00:04:38.273Z,7.25
2022-08-05T00:07:58.729Z,8.20
2022-08-05T00:10:00.122Z,7.00
2022-08-05T00:12:28.168Z,6.78
2022-08-05T00:14:57.454Z,6.78
2022-08-05T00:17:27.172Z,6.88
2022-08-05T00:20:02.181Z,7.30
2022-08-05T00:22:32.909Z,6.83
2022-08-05T00:25:02.833Z,7.00
2022-08-05T00:27:38.260Z,7.53
2022-08-05T00:30:14.405Z,7.25
2022-08-05T00:32:44.171Z,6.93
2022-08-05T00:35:17.058Z,8.00
2022-08-05T00:37:53.414Z,7.32
2022-08-05T00:40:29.012Z,6.97
2022-08-05T00:43:01.606Z,8.20
2022-08-05T00:45:42.891Z,8.32
2022-08-05T00:48:15.655Z,7.15
2022-08-05T00:50:47.539Z,7.18
2022-08-05T00:54:00.680Z,7.60
2022-08-05T00:56:09.412Z,7.50
2022-08-05T00:58:37.810Z,7.63
2022-08-05T01:01:12.538Z,7.90
2022-08-05T01:03:40.946Z,8.13
2022-08-05T01:06:14.170Z,7.65
2022-08-05T01:08:47.548Z,7.35
2022-08-05T01:11:22.100Z,7.50
2022-08-05T01:14:03.297Z,8.93
2022-08-05T01:16:39.606Z,8.88
2022-08-05T01:19:56.116Z,9.57
2022-08-05T01:22:31.824Z,8.10
2022-08-05T01:25:39.595Z,8.05
2022-08-05T01:28:27.581Z,8.40
2022-08-05T01:31:03.105Z,9.38
2022-08-05T01:33:36.048Z,8.80
2022-08-05T01:36:16.004Z,8.38
2022-08-05T01:38:49.688Z,8.93
2022-08-05T01:41:25.893Z,9.80
2022-08-05T01:43:56.381Z,9.18
2022-08-05T01:46:43.051Z,10.10
2022-08-05T01:49:24.338Z,10.02
2022-08-05T01:52:01.084Z,10.68
2022-08-05T01:54:33.885Z,10.60
2022-08-05T01:58:29.870Z,10.82
2022-08-05T02:00:13.696Z,8.82
2022-08-05T02:02:55.218Z,8.75
2022-08-05T02:05:29.357Z,9.93
2022-08-05T02:08:01.997Z,8.75
2022-08-05T02:10:35.801Z,9.20
2022-08-05T02:13:16.548Z,9.23
2022-08-05T02:15:51.222Z,9.02
2022-08-05T02:18:35.009Z,10.50
2022-08-05T02:21:15.024Z,9.65
2022-08-05T02:23:49.632Z,9.95
2022-08-05T02:26:23.075Z,10.00
2022-08-05T02:28:59.458Z,9.13
2022-08-05T02:31:34.949Z,10.00
2022-08-05T02:34:11.657Z,9.60
2022-08-05T02:36:45.084Z,9.00
2022-08-05T02:39:22.528Z,9.18
2022-08-05T02:42:00.376Z,9.23
2022-08-05T02:44:35.020Z,8.75
2022-08-05T02:47:06.939Z,10.25
2022-08-05T02:49:40.835Z,10.30
2022-08-05T02:52:25.924Z,9.43
2022-08-05T02:55:05.669Z,9.05
2022-08-05T02:58:09.415Z,9.10
2022-08-05T03:00:32.989Z,9.93
2022-08-05T03:03:07.649Z,9.20
2022-08-05T03:06:53.576Z,9.90
2022-08-05T03:08:32.078Z,9.23
2022-08-05T03:11:56.702Z,10.38
2022-08-05T03:14:03.153Z,10.43
2022-08-05T03:16:35.822Z,9.27
2022-08-05T03:19:12.593Z,10.10
2022-08-05T03:21:49.852Z,10.32
2022-08-05T03:24:27.550Z,9.10
2022-08-05T03:27:02.985Z,10.30
2022-08-05T03:29:59.596Z,10.63
2022-08-05T03:32:30.897Z,9.43
2022-08-05T03:35:01.052Z,9.23
2022-08-05T03:37:45.806Z,10.55
2022-08-05T03:40:15.521Z,10.43
2022-08-05T03:42:56.581Z,9.73
2022-08-05T03:45:25.906Z,10.65
2022-08-05T03:47:56.809Z,10.02
2022-08-05T03:50:46.016Z,10.38
2022-08-05T03:55:00.074Z,9.77
2022-08-05T03:56:18.009Z,10.95
2022-08-05T03:59:04.458Z,11.00
2022-08-05T04:01:42.771Z,11.25
2022-08-05T04:04:14.869Z,11.35
2022-08-05T04:06:54.697Z,11.65
2022-08-05T04:09:26.296Z,11.27
2022-08-05T04:11:59.624Z,11.00
2022-08-05T04:14:30.296Z,12.13
2022-08-05T04:17:03.308Z,11.23
2022-08-05T04:19:43.317Z,12.85
2022-08-05T04:22:20.557Z,12.40
2022-08-05T04:24:52.632Z,13.25
2022-08-05T04:27:33.307Z,13.55
2022-08-05T04:30:13.259Z,13.85
2022-08-05T04:32:53.006Z,14.00
2022-08-05T04:35:21.912Z,15.27
2022-08-05T04:38:02.650Z,15.88
2022-08-05T04:40:36.104Z,15.88
2022-08-05T04:43:06.386Z,16.60
2022-08-05T04:45:48.151Z,15.73
2022-08-05T04:48:28.061Z,17.38
2022-08-05T04:51:03.593Z,18.98
2022-08-05T04:53:42.343Z,21.60
2022-08-05T04:56:32.912Z,18.30
2022-08-05T04:58:59.918Z,18.15
2022-08-05T05:02:07.094Z,19.83
2022-08-05T05:04:35.773Z,23.50
2022-08-05T05:07:09.496Z,25.48
2022-08-05T05:09:38.951Z,30.23
2022-08-05T05:12:09.032Z,30.98
2022-08-05T05:14:49.265Z,33.70
2022-08-05T05:17:23.388Z,33.65
2022-08-05T05:19:55.016Z,29.73
2022-08-05T05:22:26.998Z,24.77
2022-08-05T05:25:00.282Z,19.65
2022-08-05T05:27:41.225Z,19.98
2022-08-05T05:30:29.237Z,20.30
2022-08-05T05:33:01.014Z,22.90
2022-08-05T05:35:39.565Z,24.17
2022-08-05T05:38:13.112Z,22.58
2022-08-05T05:40:49.772Z,20.88
2022-08-05T05:43:54.267Z,23.95
2022-08-05T05:46:18.133Z,24.48
2022-08-05T05:48:48.659Z,25.38
2022-08-05T05:51:24.240Z,23.40
2022-08-05T05:53:59.527Z,22.27
2022-08-05T05:56:34.741Z,24.10
2022-08-05T05:59:05.896Z,22.45
2022-08-05T06:01:37.995Z,21.42
2022-08-05T06:04:11.844Z,18.50
2022-08-05T06:06:47.805Z,18.03
2022-08-05T06:09:25.858Z,17.67
2022-08-05T06:12:12.142Z,16.48
2022-08-05T06:14:48.470Z,16.23
2022-08-05T06:17:24.488Z,16.52
2022-08-05T06:20:01.637Z,16.50
2022-08-05T06:22:34.021Z,15.88
2022-08-05T06:25:59.717Z,16.20
2022-08-05T06:28:10.719Z,16.33
2022-08-05T06:30:42.947Z,17.03
2022-08-05T06:33:12.953Z,16.50
2022-08-05T06:36:07.685Z,14.45
2022-08-05T06:38:39.049Z,13.40
2022-08-05T06:41:17.240Z,13.43
2022-08-05T06:43:57.633Z,13.80
2022-08-05T06:46:30.624Z,13.15
2022-08-05T06:49:01.365Z,13.45
2022-08-05T06:51:30.725Z,11.73
2022-08-05T06:53:59.879Z,12.45
2022-08-05T06:56:34.365Z,11.23
2022-08-05T06:59:09.730Z,9.85
2022-08-05T07:01:40.780Z,9.13
2022-08-05T07:04:13.958Z,9.38
2022-08-05T07:06:44.224Z,8.73
2022-08-05T07:09:12.027Z,7.63
2022-08-05T07:11:43.068Z,8.48
2022-08-05T07:14:38.321Z,7.60
2022-08-05T07:17:56.321Z,8.35
2022-08-05T07:20:31.396Z,7.10
2022-08-05T07:22:47.832Z,6.90
2022-08-05T07:25:55.601Z,6.80
2022-08-05T07:28:11.654Z,7.00
2022-08-05T07:30:43.298Z,6.80
2022-08-05T07:33:18.278Z,6.40
2022-08-05T07:36:01.995Z,6.83
2022-08-05T07:38:43.217Z,6.57
2022-08-05T07:41:35.245Z,5.65
2022-08-05T07:44:05.808Z,5.78
2022-08-05T07:46:46.717Z,5.28
2022-08-05T07:49:18.887Z,4.80
2022-08-05T07:51:53.171Z,4.97
2022-08-05T07:54:31.169Z,4.35
2022-08-05T07:57:16.854Z,4.60
2022-08-05T07:59:50.217Z,4.72
2022-08-05T08:02:19.471Z,4.78
2022-08-05T08:04:59.257Z,4.90
2022-08-05T08:07:28.403Z,5.03
2022-08-05T08:09:56.779Z,5.30
2022-08-05T08:12:33.376Z,5.68
2022-08-05T08:15:14.324Z,5.40
2022-08-05T08:17:52.886Z,5.70
2022-08-05T08:20:59.994Z,5.30
2022-08-05T08:24:00.407Z,4.85
2022-08-05T08:25:59.830Z,4.22
2022-08-05T08:28:36.566Z,4.57
2022-08-05T08:31:05.902Z,4.90
2022-08-05T08:33:36.141Z,4.57
2022-08-05T08:36:29.764Z,4.60
2022-08-05T08:38:55.498Z,4.95
2022-08-05T08:41:52.392Z,4.60
2022-08-05T08:45:19.143Z,4.72
2022-08-05T08:47:47.681Z,4.23
2022-08-05T08:50:30.935Z,3.85
2022-08-05T08:53:02.127Z,3.97
2022-08-05T08:56:03.003Z,3.67
2022-08-05T08:58:43.034Z,3.40
2022-08-05T09:01:16.017Z,3.20
2022-08-05T09:03:46.376Z,3.05
2022-08-05T09:06:21.377Z,2.80
2022-08-05T09:08:52.193Z,2.90
2022-08-05T09:11:51.322Z,2.55
2022-08-05T09:14:58.676Z,2.72
2022-08-05T09:17:00.990Z,2.63
2022-08-05T09:19:36.854Z,2.70
2022-08-05T09:22:30.733Z,2.55
2022-08-05T09:25:01.061Z,2.60
2022-08-05T09:28:04.049Z,2.70
2022-08-05T09:30:25.667Z,2.85
2022-08-05T09:33:05.070Z,2.53
2022-08-05T09:35:32.979Z,3.67
2022-08-05T09:38:16.439Z,4.22
2022-08-05T09:40:52.689Z,3.47
2022-08-05T09:43:42.193Z,2.80
2022-08-05T09:46:28.420Z,5.47
2022-08-05T09:49:07.576Z,3.10
2022-08-05T09:51:49.386Z,2.70
2022-08-05T09:54:32.252Z,3.45
2022-08-05T09:57:01.483Z,3.30
2022-08-05T09:59:35.203Z,7.18
2022-08-05T10:02:06.140Z,4.13
2022-08-05T10:04:39.639Z,2.50
2022-08-05T10:07:20.281Z,8.35
2022-08-05T10:10:13.749Z,2.92
2022-08-05T10:12:49.618Z,3.17
2022-08-05T10:15:22.870Z,3.72
2022-08-05T10:18:12.557Z,2.03
2022-08-05T10:20:48.043Z,2.40
2022-08-05T10:23:33.890Z,2.20
2022-08-05T10:26:14.465Z,2.13
2022-08-05T10:28:46.280Z,2.20
2022-08-05T10:32:48.712Z,6.15
2022-08-05T10:34:08.066Z,4.90
2022-08-05T10:36:37.319Z,2.20
2022-08-05T10:39:10.441Z,2.30
2022-08-05T10:41:48.778Z,4.97
2022-08-05T10:44:20.247Z,3.00
2022-08-05T10:46:54.105Z,5.72
2022-08-05T10:49:27.514Z,6.15
2022-08-05T10:52:05.409Z,2.97
2022-08-05T10:54:56.053Z,4.90
2022-08-05T10:57:34.006Z,2.60
2022-08-05T11:00:19.652Z,2.30
2022-08-05T11:03:26.006Z,2.20
2022-08-05T11:06:15.812Z,6.00
2022-08-05T11:09:45.224Z,2.63
2022-08-05T11:12:50.548Z,2.42
2022-08-05T11:15:59.235Z,2.20
2022-08-05T11:18:29.992Z,2.47
2022-08-05T11:21:02.200Z,2.53
2022-08-05T11:24:04.619Z,20.52
2022-08-05T11:26:33.422Z,2.58
2022-08-05T11:29:12.668Z,2.80
2022-08-05T11:31:57.571Z,3.65
2022-08-05T11:34:51.393Z,18.00
2022-08-05T11:38:30.622Z,5.10
2022-08-05T11:41:03.385Z,6.97
2022-08-05T11:44:04.897Z,7.07
2022-08-05T11:46:37.708Z,3.33
2022-08-05T11:49:13.375Z,3.30
2022-08-05T11:51:49.347Z,14.17
2022-08-05T11:54:33.737Z,12.07
2022-08-05T11:57:08.700Z,18.55
2022-08-05T11:59:54.808Z,10.13
2022-08-05T12:02:32.788Z,4.40
2022-08-05T12:05:07.728Z,13.38
2022-08-05T12:08:03.275Z,6.05
2022-08-05T12:10:39.005Z,5.60
2022-08-05T12:13:16.428Z,5.00
2022-08-05T12:15:49.848Z,3.67
2022-08-05T12:18:20.781Z,3.60
2022-08-05T12:20:52.390Z,5.13
2022-08-05T12:23:20.398Z,4.00
2022-08-05T12:25:53.363Z,4.20
2022-08-05T12:28:35.095Z,4.00
2022-08-05T12:31:07.976Z,4.35
2022-08-05T12:33:39.654Z,4.60
2022-08-05T12:36:13.741Z,6.57
2022-08-05T12:38:46.437Z,5.18
2022-08-05T12:41:18.051Z,21.05
2022-08-05T12:43:56.317Z,6.78
2022-08-05T12:46:28.921Z,18.20
2022-08-05T12:49:00.266Z,18.60
2022-08-05T12:52:14.465Z,6.25
2022-08-05T12:54:26.688Z,7.68
2022-08-05T12:56:55.904Z,14.70
2022-08-05T12:59:46.402Z,7.70
2022-08-05T13:02:14.808Z,9.15
2022-08-05T13:04:54.392Z,9.50
2022-08-05T13:07:55.912Z,13.93
2022-08-05T13:10:19.931Z,6.80
2022-08-05T13:12:51.163Z,8.50
2022-08-05T13:15:35.915Z,10.70
2022-08-05T13:18:18.760Z,10.77
2022-08-05T13:20:51.016Z,10.13
2022-08-05T13:23:22.468Z,11.60
2022-08-05T13:25:59.258Z,13.83
2022-08-05T13:28:32.229Z,11.40
2022-08-05T13:31:10.947Z,11.15
2022-08-05T13:34:23.243Z,13.15
2022-08-05T13:36:36.735Z,12.18
2022-08-05T13:39:08.408Z,9.97
2022-08-05T13:41:54.807Z,11.68
2022-08-05T13:44:23.830Z,13.02
2022-08-05T13:47:02.467Z,12.43
2022-08-05T13:49:46.490Z,11.45
2022-08-05T13:52:29.478Z,10.48
2022-08-05T13:54:59.277Z,9.38
2022-08-05T13:57:51.548Z,11.40
2022-08-05T14:00:27.331Z,12.13
2022-08-05T14:02:56.193Z,10.52
2022-08-05T14:05:48.243Z,9.70
2022-08-05T14:08:21.421Z,10.60
2022-08-05T14:11:19.942Z,10.27
2022-08-05T14:13:48.427Z,14.25
2022-08-05T14:16:20.317Z,14.00
2022-08-05T14:19:13.493Z,14.02
2022-08-05T14:22:08.983Z,13.10
2022-08-05T14:24:31.633Z,13.30
2022-08-05T14:27:17.542Z,13.40
2022-08-05T14:29:46.134Z,13.00
2022-08-05T14:32:27.196Z,12.55
2022-08-05T14:34:57.004Z,10.15
2022-08-05T14:37:48.039Z,9.82
2022-08-05T14:40:18.178Z,10.40
2022-08-05T14:42:49.095Z,10.75
2022-08-05T14:45:17.103Z,10.32
2022-08-05T14:48:02.588Z,9.85
2022-08-05T14:50:39.837Z,10.60
2022-08-05T14:53:08.834Z,10.20
2022-08-05T14:55:41.925Z,10.23
2022-08-05T14:58:13.909Z,9.38
2022-08-05T15:00:59.457Z,8.88
2022-08-05T15:03:34.066Z,10.02
2022-08-05T15:06:15.171Z,10.20
2022-08-05T15:08:58.104Z,9.18
2022-08-05T15:11:53.286Z,7.95
2022-08-05T15:14:43.111Z,6.70
2022-08-05T15:17:45.738Z,6.83
2022-08-05T15:20:15.670Z,7.20
2022-08-05T15:22:54.179Z,7.68
2022-08-05T15:25:41.082Z,6.53
2022-08-05T15:28:18.382Z,6.83
2022-08-05T15:30:46.793Z,7.10
2022-08-05T15:34:04.376Z,7.90
2022-08-05T15:36:17.782Z,8.77
2022-08-05T15:39:07.605Z,8.73
2022-08-05T15:41:55.698Z,8.13
2022-08-05T15:44:30.806Z,8.10
2022-08-05T15:46:59.412Z,8.13
2022-08-05T15:49:55.337Z,7.65
2022-08-05T15:52:52.060Z,8.10
2022-08-05T15:55:10.374Z,8.23
2022-08-05T15:57:45.105Z,8.68
2022-08-05T16:00:25.983Z,8.38
2022-08-05T16:03:03.292Z,7.75
2022-08-05T16:05:31.391Z,7.07
2022-08-05T16:08:00.191Z,7.53
2022-08-05T16:10:30.403Z,6.90
2022-08-05T16:12:58.869Z,6.75
2022-08-05T16:15:32.493Z,5.88
2022-08-05T16:18:04.349Z,5.57
2022-08-05T16:20:37.356Z,5.85
2022-08-05T16:23:05.339Z,4.68
2022-08-05T16:25:36.889Z,4.50
2022-08-05T16:28:06.493Z,4.20
2022-08-05T16:30:39.249Z,3.83
2022-08-05T16:33:11.636Z,4.10
2022-08-05T16:35:44.656Z,3.70
2022-08-05T16:38:25.575Z,3.80
2022-08-05T16:41:01.305Z,4.07
2022-08-05T16:43:34.097Z,3.63
2022-08-05T16:46:24.017Z,3.40
2022-08-05T16:48:58.358Z,3.30
2022-08-05T16:51:31.053Z,3.20
2022-08-05T16:54:24.829Z,3.38
2022-08-05T16:56:58.759Z,2.97
2022-08-05T16:59:27.901Z,3.10
2022-08-05T17:02:02.364Z,3.00
2022-08-05T17:04:32.393Z,3.00
2022-08-05T17:07:03.115Z,3.00
2022-08-05T17:09:38.882Z,3.03
2022-08-05T17:12:51.059Z,2.80
2022-08-05T17:15:15.833Z,3.20
2022-08-05T17:17:55.079Z,3.10
2022-08-05T17:20:23.374Z,3.00
2022-08-05T17:22:55.790Z,3.00
2022-08-05T17:25:39.629Z,2.60
2022-08-05T17:28:09.285Z,2.92
2022-08-05T17:30:42.575Z,3.00
2022-08-05T17:33:22.118Z,3.20
2022-08-05T17:36:07.687Z,3.22
2022-08-05T17:38:39.899Z,3.10
2022-08-05T17:41:11.620Z,3.00
2022-08-05T17:43:56.603Z,3.20
2022-08-05T17:46:26.003Z,3.20
2022-08-05T17:48:55.942Z,3.40
2022-08-05T17:51:28.053Z,3.77
2022-08-05T17:54:08.136Z,3.45
2022-08-05T17:56:37.899Z,3.17
2022-08-05T17:59:05.751Z,3.60
2022-08-05T18:01:49.612Z,3.97
2022-08-05T18:04:21.058Z,3.70
2022-08-05T18:06:50.012Z,3.50
2022-08-05T18:09:18.095Z,3.53
2022-08-05T18:11:52.590Z,3.70
2022-08-05T18:14:20.888Z,3.38
2022-08-05T18:16:53.281Z,3.50
2022-08-05T18:19:25.855Z,3.50
2022-08-05T18:22:09.778Z,3.30
2022-08-05T18:24:40.282Z,3.42
2022-08-05T18:27:18.378Z,3.70
2022-08-05T18:29:51.910Z,3.58
2022-08-05T18:32:28.448Z,3.75
2022-08-05T18:34:59.195Z,3.67
2022-08-05T18:37:34.481Z,4.00
2022-08-05T18:41:49.974Z,3.97
2022-08-05T18:43:01.025Z,4.03
2022-08-05T18:45:41.875Z,3.70
2022-08-05T18:48:10.985Z,4.10
2022-08-05T18:51:01.623Z,3.70
2022-08-05T18:53:50.225Z,3.53
2022-08-05T18:56:21.731Z,3.70
2022-08-05T18:58:54.948Z,3.72
2022-08-05T19:01:47.760Z,3.60
2022-08-05T19:04:23.888Z,3.53
2022-08-05T19:06:53.978Z,3.83
2022-08-05T19:09:22.591Z,4.50
2022-08-05T19:12:00.327Z,4.05
2022-08-05T19:14:52.259Z,3.78
2022-08-05T19:17:23.823Z,4.15
2022-08-05T19:20:01.755Z,4.10
2022-08-05T19:22:32.673Z,4.20
2022-08-05T19:25:04.155Z,3.80
2022-08-05T19:27:36.687Z,4.60
2022-08-05T19:30:07.154Z,4.75
2022-08-05T19:32:38.073Z,4.80
2022-08-05T19:35:07.821Z,4.32
2022-08-05T19:38:06.187Z,4.63
2022-08-05T19:40:29.417Z,5.70
2022-08-05T19:43:05.039Z,5.20
2022-08-05T19:45:36.949Z,4.28
2022-08-05T19:48:05.852Z,4.45
2022-08-05T19:50:35.003Z,3.90
2022-08-05T19:53:09.298Z,4.25
2022-08-05T19:56:15.569Z,3.80
2022-08-05T19:58:30.469Z,4.90
2022-08-05T20:01:00.863Z,4.20
2022-08-05T20:03:38.795Z,3.80
2022-08-05T20:06:16.025Z,4.50
2022-08-05T20:09:06.063Z,4.47
2022-08-05T20:11:48.267Z,4.68
2022-08-05T20:14:26.767Z,4.38
2022-08-05T20:17:01.712Z,4.80
2022-08-05T20:19:36.209Z,4.22
2022-08-05T20:22:04.928Z,4.17
2022-08-05T20:24:34.408Z,4.43
2022-08-05T20:27:03.213Z,5.40
2022-08-05T20:29:57.910Z,4.47
2022-08-05T20:32:28.089Z,4.28
2022-08-05T20:34:58.359Z,3.88
2022-08-05T20:38:05.610Z,3.90
2022-08-05T20:40:19.797Z,3.92
2022-08-05T20:42:48.411Z,4.10
2022-08-05T20:45:16.408Z,4.43
2022-08-05T20:47:51.290Z,3.92
2022-08-05T20:50:19.902Z,3.80
2022-08-05T20:52:48.069Z,3.60
2022-08-05T20:56:07.213Z,4.20
2022-08-05T20:58:05.428Z,3.80
2022-08-05T21:00:44.386Z,4.18
2022-08-05T21:03:21.607Z,4.05
2022-08-05T21:05:53.680Z,4.22
2022-08-05T21:08:33.167Z,4.50
2022-08-05T21:11:15.272Z,4.00
2022-08-05T21:14:02.481Z,3.42
2022-08-05T21:16:36.872Z,3.63
2022-08-05T21:19:05.321Z,3.80
2022-08-05T21:21:43.849Z,3.88
2022-08-05T21:24:22.464Z,4.20
2022-08-05T21:26:56.148Z,5.00
2022-08-05T21:29:32.537Z,5.10
2022-08-05T21:32:08.882Z,4.80
2022-08-05T21:34:38.920Z,4.35
2022-08-05T21:37:09.297Z,4.40
2022-08-05T21:39:38.382Z,4.97
2022-08-05T21:42:30.691Z,4.50
2022-08-05T21:44:58.401Z,4.00
2022-08-05T21:47:54.836Z,3.65
2022-08-05T21:50:18.375Z,4.45
2022-08-05T21:52:50.365Z,4.03
2022-08-05T21:55:42.917Z,3.60
2022-08-05T21:58:12.180Z,3.47
2022-08-05T22:00:40.334Z,3.67
2022-08-05T22:03:16.486Z,4.00
2022-08-05T22:05:49.380Z,4.57
2022-08-05T22:08:24.250Z,4.78
2022-08-05T22:10:54.581Z,3.80
2022-08-05T22:14:32.385Z,3.42
2022-08-05T22:16:39.477Z,3.60
2022-08-05T22:19:15.058Z,3.40
2022-08-05T22:21:56.071Z,3.40
2022-08-05T22:24:53.434Z,4.33
2022-08-05T22:28:09.703Z,4.15
2022-08-05T22:30:35.798Z,4.45
2022-08-05T22:33:04.454Z,4.45
2022-08-05T22:35:49.257Z,3.97
2022-08-05T22:38:18.897Z,3.50
2022-08-05T22:40:55.230Z,4.50
2022-08-05T22:43:36.555Z,4.10
2022-08-05T22:46:13.285Z,3.90
2022-08-05T22:48:51.544Z,4.50
2022-08-05T22:51:23.243Z,4.65
2022-08-05T22:54:09.439Z,4.60
2022-08-05T22:56:41.367Z,4.70
2022-08-05T22:59:45.082Z,4.97
2022-08-05T23:02:06.129Z,4.80
2022-08-05T23:04:37.859Z,5.13
2022-08-05T23:07:06.964Z,5.07
2022-08-05T23:09:57.068Z,3.97
2022-08-05T23:12:29.003Z,1.65
2022-08-05T23:15:01.355Z,1.13
2022-08-05T23:17:37.869Z,1.10
2022-08-05T23:20:25.128Z,1.00
2022-08-05T23:22:58.801Z,1.15
2022-08-05T23:25:54.747Z,1.00
2022-08-05T23:28:19.254Z,0.90
2022-08-05T23:30:53.470Z,1.02
2022-08-05T23:34:05.690Z,1.17
2022-08-05T23:36:18.261Z,0.95
2022-08-05T23:38:49.032Z,1.20
2022-08-05T23:41:17.643Z,1.00
2022-08-05T23:44:04.626Z,1.00
2022-08-05T23:46:37.414Z,1.10
2022-08-05T23:49:15.859Z,1.00
2022-08-05T23:52:05.713Z,1.00
2022-08-05T23:54:38.630Z,0.90
2022-08-05T23:57:09.529Z,1.00
